createdAt,value
2023-05-05T00:00:32.461Z,1018.54
2023-05-05T00:01:33.331Z,1018.51
2023-05-05T00:02:32.333Z,1018.53
2023-05-05T00:03:31.779Z,1018.55
2023-05-05T00:04:32.259Z,1018.48
2023-05-05T00:05:31.666Z,1018.50
2023-05-05T00:06:31.823Z,1018.50
2023-05-05T00:07:31.745Z,1018.45
2023-05-05T00:08:31.920Z,1018.46
2023-05-05T00:09:32.429Z,1018.43
2023-05-05T00:10:31.744Z,1018.47
2023-05-05T00:11:31.946Z,1018.51
2023-05-05T00:12:31.631Z,1018.38
2023-05-05T00:13:31.503Z,1018.44
2023-05-05T00:14:37.081Z,1018.45
2023-05-05T00:15:31.780Z,1018.44
2023-05-05T00:16:32.117Z,1018.44
2023-05-05T00:17:33.247Z,1018.40
2023-05-05T00:18:32.082Z,1018.47
2023-05-05T00:19:31.679Z,1018.42
2023-05-05T00:20:32.286Z,1018.41
2023-05-05T00:21:33.128Z,1018.34
2023-05-05T00:22:31.792Z,1018.38
2023-05-05T00:23:32.186Z,1018.39
2023-05-05T00:24:31.617Z,1018.36
2023-05-05T00:25:32.312Z,1018.37
2023-05-05T00:26:31.517Z,1018.37
2023-05-05T00:27:32.187Z,1018.35
2023-05-05T00:28:31.879Z,1018.35
2023-05-05T00:29:31.888Z,1018.41
2023-05-05T00:30:31.536Z,1018.35
2023-05-05T00:31:31.628Z,1018.38
2023-05-05T00:32:31.487Z,1018.33
2023-05-05T00:33:31.235Z,1018.37
2023-05-05T00:34:31.294Z,1018.27
2023-05-05T00:35:31.238Z,1018.28
2023-05-05T00:36:32.003Z,1018.35
2023-05-05T00:37:33.467Z,1018.36
2023-05-05T00:38:32.464Z,1018.31
2023-05-05T00:39:31.321Z,1018.28
2023-05-05T00:40:32.161Z,1018.32
2023-05-05T00:41:31.158Z,1018.27
2023-05-05T00:42:31.837Z,1018.28
2023-05-05T00:43:31.851Z,1018.26
2023-05-05T00:44:31.153Z,1018.22
2023-05-05T00:45:33.255Z,1018.22
2023-05-05T00:46:33.286Z,1018.21
2023-05-05T00:47:31.688Z,1018.20
2023-05-05T00:48:31.262Z,1018.18
2023-05-05T00:49:31.745Z,1018.17
2023-05-05T00:50:32.632Z,1018.20
2023-05-05T00:51:31.373Z,1018.22
2023-05-05T00:52:33.202Z,1018.21
2023-05-05T00:53:33.014Z,1018.23
2023-05-05T00:54:31.361Z,1018.29
2023-05-05T00:55:33.277Z,1018.32
2023-05-05T00:56:31.307Z,1018.33
2023-05-05T00:57:33.678Z,1018.31
2023-05-05T00:58:32.105Z,1018.34
2023-05-05T00:59:32.619Z,1018.26
2023-05-05T01:00:31.156Z,1018.26
2023-05-05T01:01:31.001Z,1018.29
2023-05-05T01:02:32.070Z,1018.26
2023-05-05T01:03:31.234Z,1018.22
2023-05-05T01:04:30.984Z,1018.16
2023-05-05T01:05:31.437Z,1018.21
2023-05-05T05:47:17.985Z,1017.55
2023-05-05T05:55:22.158Z,1017.74
2023-05-05T07:32:17.973Z,1017.36
2023-05-05T07:33:18.701Z,1017.33
2023-05-05T07:34:18.368Z,1017.39
2023-05-05T07:35:17.853Z,1017.40
2023-05-05T07:36:18.354Z,1017.39
2023-05-05T07:37:17.792Z,1017.45
2023-05-05T07:38:17.702Z,1017.49
2023-05-05T07:39:17.673Z,1017.43
2023-05-05T07:40:17.638Z,1017.50
2023-05-05T07:41:17.620Z,1017.47
2023-05-05T07:42:18.531Z,1017.51
2023-05-05T07:43:17.734Z,1017.53
2023-05-05T07:44:19.202Z,1017.55
2023-05-05T07:45:18.173Z,1017.59
2023-05-05T08:09:08.713Z,1017.73
2023-05-05T08:10:07.673Z,1017.83
2023-05-05T08:11:07.333Z,1017.81
2023-05-05T08:12:07.473Z,1017.85
2023-05-05T08:13:07.321Z,1017.82
2023-05-05T08:14:07.588Z,1017.81
2023-05-05T08:15:07.817Z,1017.79
2023-05-05T08:16:07.773Z,1017.76
2023-05-05T08:17:07.217Z,1017.74
2023-05-05T08:18:07.308Z,1017.74
2023-05-05T08:19:14.840Z,1017.76
2023-05-05T08:20:08.215Z,1017.70
2023-05-05T08:21:07.326Z,1017.72
2023-05-05T08:22:07.302Z,1017.75
2023-05-05T08:23:07.304Z,1017.85
2023-05-05T08:24:07.183Z,1017.85
2023-05-05T08:25:07.800Z,1017.84
2023-05-05T08:26:07.537Z,1017.84
2023-05-05T08:27:07.167Z,1017.83
2023-05-05T08:28:07.619Z,1017.82
2023-05-05T08:29:07.080Z,1017.84
2023-05-05T08:30:07.029Z,1017.85
2023-05-05T08:31:07.111Z,1017.89
2023-05-05T08:32:07.217Z,1017.83
2023-05-05T08:33:07.168Z,1017.85
2023-05-05T08:34:07.086Z,1017.79
2023-05-05T08:35:08.089Z,1017.83
2023-05-05T08:36:07.165Z,1017.82
2023-05-05T08:37:06.997Z,1017.79
2023-05-05T08:38:07.204Z,1017.79
2023-05-05T08:39:06.868Z,1017.82
2023-05-05T08:40:06.896Z,1017.88
2023-05-05T08:41:07.035Z,1017.84
2023-05-05T08:42:07.042Z,1017.76
2023-05-05T08:43:06.882Z,1017.84
2023-05-05T08:44:07.594Z,1017.69
2023-05-05T08:45:07.075Z,1017.74
2023-05-05T08:46:07.028Z,1017.76
2023-05-05T08:47:06.958Z,1017.65
2023-05-05T08:48:06.980Z,1017.63
2023-05-05T08:49:06.813Z,1017.61
2023-05-05T08:50:06.791Z,1017.59
2023-05-05T08:51:06.760Z,1017.60
2023-05-05T08:52:07.047Z,1017.58
2023-05-05T08:53:07.709Z,1017.59
2023-05-05T08:54:07.505Z,1017.56
2023-05-05T08:55:06.883Z,1017.57
2023-05-05T08:56:06.883Z,1017.56
2023-05-05T08:57:06.869Z,1017.55
2023-05-05T08:58:06.643Z,1017.61
2023-05-05T08:59:07.552Z,1017.54
2023-05-05T09:00:06.690Z,1017.51
2023-05-05T09:01:06.697Z,1017.49
2023-05-05T09:02:06.694Z,1017.38
2023-05-05T09:03:06.860Z,1017.40
2023-05-05T09:04:06.637Z,1017.33
2023-05-05T09:05:06.868Z,1017.32
2023-05-05T09:06:06.625Z,1017.27
2023-05-05T09:07:06.702Z,1017.27
2023-05-05T09:08:06.818Z,1017.26
2023-05-05T09:09:07.413Z,1017.24
2023-05-05T09:10:06.611Z,1017.17
2023-05-05T09:11:06.447Z,1017.24
2023-05-05T09:12:06.547Z,1017.15
2023-05-05T09:13:06.503Z,1017.17
2023-05-05T09:14:06.498Z,1017.12
2023-05-05T09:15:06.921Z,1017.05
2023-05-05T09:16:06.569Z,1017.12
2023-05-05T09:17:06.496Z,1017.08
2023-05-05T09:18:06.653Z,1017.06
2023-05-05T09:19:06.397Z,1017.01
2023-05-05T09:20:06.386Z,1017.01
2023-05-05T09:21:06.373Z,1017.03
2023-05-05T09:22:06.513Z,1017.07
2023-05-05T09:23:06.351Z,1017.14
2023-05-05T09:24:08.505Z,1017.25
2023-05-05T09:25:06.615Z,1017.11
2023-05-05T09:26:06.422Z,1017.12
2023-05-05T09:27:06.517Z,1017.15
2023-05-05T09:28:06.213Z,1017.15
2023-05-05T09:29:06.252Z,1017.11
2023-05-05T09:30:06.282Z,1017.09
2023-05-05T09:31:06.225Z,1017.27
2023-05-05T09:32:06.227Z,1017.01
2023-05-05T09:33:06.419Z,1017.16
2023-05-05T09:34:06.204Z,1017.05
2023-05-05T09:35:06.293Z,1017.08
2023-05-05T09:36:06.284Z,1016.98
2023-05-05T09:37:06.540Z,1017.00
2023-05-05T09:38:06.113Z,1016.92
2023-05-05T09:39:06.070Z,1017.03
2023-05-05T09:40:06.154Z,1016.93
2023-05-05T09:41:06.426Z,1017.00
2023-05-05T09:42:06.046Z,1016.93
2023-05-05T09:43:06.251Z,1016.97
2023-05-05T09:44:06.309Z,1016.99
2023-05-05T09:45:06.318Z,1016.98
2023-05-05T09:46:06.089Z,1016.99
2023-05-05T09:47:12.155Z,1016.92
2023-05-05T09:48:07.021Z,1016.95
2023-05-05T09:49:06.195Z,1016.86
2023-05-05T09:50:06.205Z,1016.94
2023-05-05T09:51:05.897Z,1016.95
2023-05-05T09:52:06.714Z,1016.98
2023-05-05T09:53:05.978Z,1016.95
2023-05-05T09:54:06.466Z,1016.99
2023-05-05T09:55:05.974Z,1016.99
2023-05-05T09:56:05.845Z,1017.01
2023-05-05T09:57:05.852Z,1017.00
2023-05-05T09:58:05.955Z,1017.05
2023-05-05T09:59:05.949Z,1017.08
2023-05-05T10:00:05.907Z,1017.08
2023-05-05T10:01:06.059Z,1017.00
2023-05-05T10:02:05.878Z,1017.00
2023-05-05T10:03:05.841Z,1016.93
2023-05-05T10:04:05.841Z,1016.92
2023-05-05T10:05:05.899Z,1016.89
2023-05-05T10:06:05.697Z,1016.82
2023-05-05T10:07:06.714Z,1016.76
2023-05-05T10:08:05.767Z,1016.74
2023-05-05T10:09:05.719Z,1016.71
2023-05-05T10:10:05.978Z,1016.65
2023-05-05T10:11:05.862Z,1016.66
2023-05-05T10:12:05.805Z,1016.61
2023-05-05T10:13:06.009Z,1016.62
2023-05-05T10:14:05.689Z,1016.62
2023-05-05T10:15:05.633Z,1016.63
2023-05-05T10:16:05.794Z,1016.66
2023-05-05T10:17:05.710Z,1016.64
2023-05-05T10:18:07.425Z,1016.67
2023-05-05T10:19:06.402Z,1016.72
2023-05-05T10:20:05.814Z,1016.66
2023-05-05T10:21:05.492Z,1016.66
2023-05-05T10:22:06.226Z,1016.62
2023-05-05T10:23:05.691Z,1016.68
2023-05-05T10:24:05.433Z,1016.57
2023-05-05T10:25:06.195Z,1016.60
2023-05-05T10:26:05.433Z,1016.62
2023-05-05T10:27:05.564Z,1016.53
2023-05-05T10:28:05.418Z,1016.55
2023-05-05T10:29:05.364Z,1016.52
2023-05-05T10:30:05.733Z,1016.53
2023-05-05T10:31:16.153Z,1016.54
2023-05-05T10:32:27.129Z,1016.55
2023-05-05T10:33:27.275Z,1016.55
2023-05-05T10:34:06.704Z,1016.58
2023-05-05T10:35:05.278Z,1016.59
2023-05-05T10:36:05.288Z,1016.59
2023-05-05T10:37:05.284Z,1016.61
2023-05-05T10:38:05.304Z,1016.58
2023-05-05T10:39:05.329Z,1016.61
2023-05-05T10:40:05.240Z,1016.66
2023-05-05T10:41:05.191Z,1016.58
2023-05-05T10:42:05.227Z,1016.62
2023-05-05T10:43:05.478Z,1016.59
2023-05-05T10:44:05.408Z,1016.66
2023-05-05T10:45:05.202Z,1016.63
2023-05-05T10:46:05.788Z,1016.63
2023-05-05T10:47:05.822Z,1016.71
2023-05-05T10:48:05.279Z,1016.62
2023-05-05T10:49:05.130Z,1016.69
2023-05-05T10:50:05.161Z,1016.65
2023-05-05T10:51:05.065Z,1016.63
2023-05-05T10:52:05.084Z,1016.62
2023-05-05T10:53:05.202Z,1016.68
2023-05-05T10:54:05.060Z,1016.72
2023-05-05T10:55:05.160Z,1016.70
2023-05-05T10:56:05.231Z,1016.65
2023-05-05T10:57:05.391Z,1016.72
2023-05-05T10:58:05.582Z,1016.68
2023-05-05T10:59:05.641Z,1016.68
2023-05-05T11:00:05.049Z,1016.66
2023-05-05T11:01:05.226Z,1016.64
2023-05-05T11:02:04.891Z,1016.65
2023-05-05T11:03:05.093Z,1016.72
2023-05-05T11:04:04.948Z,1016.71
2023-05-05T11:05:05.152Z,1016.74
2023-05-05T11:06:04.880Z,1016.78
2023-05-05T11:07:05.099Z,1016.75
2023-05-05T11:08:05.039Z,1016.72
2023-05-05T11:09:04.823Z,1016.78
2023-05-05T11:10:06.125Z,1016.75
2023-05-05T11:11:05.366Z,1016.69
2023-05-05T11:12:04.774Z,1016.72
2023-05-05T11:13:04.959Z,1016.64
2023-05-05T11:14:04.810Z,1016.63
2023-05-05T11:15:04.788Z,1016.63
2023-05-05T11:16:04.815Z,1016.58
2023-05-05T11:17:05.166Z,1016.59
2023-05-05T11:18:07.484Z,1016.58
2023-05-05T11:19:04.852Z,1016.66
2023-05-05T11:20:04.706Z,1016.64
2023-05-05T11:21:04.696Z,1016.63
2023-05-05T11:22:04.656Z,1016.62
2023-05-05T11:23:05.201Z,1016.56
2023-05-05T11:24:04.605Z,1016.59
2023-05-05T11:25:04.888Z,1016.59
2023-05-05T11:26:04.602Z,1016.61
2023-05-05T11:27:04.812Z,1016.59
2023-05-05T11:28:04.657Z,1016.57
2023-05-05T11:29:04.570Z,1016.55
2023-05-05T11:30:04.718Z,1016.53
2023-05-05T11:31:04.571Z,1016.53
2023-05-05T11:32:04.520Z,1016.54
2023-05-05T11:33:04.540Z,1016.51
2023-05-05T11:34:04.458Z,1016.49
2023-05-05T11:35:04.515Z,1016.47
2023-05-05T11:36:06.500Z,1016.44
2023-05-05T11:37:04.498Z,1016.40
2023-05-05T11:38:04.493Z,1016.36
2023-05-05T11:39:04.624Z,1016.36
2023-05-05T11:40:05.325Z,1016.32
2023-05-05T11:41:04.386Z,1016.33
2023-05-05T11:42:09.477Z,1016.26
2023-05-05T11:43:05.376Z,1016.27
2023-05-05T11:44:04.356Z,1016.29
2023-05-05T11:45:04.316Z,1016.27
2023-05-05T11:46:04.453Z,1016.27
2023-05-05T11:47:04.406Z,1016.26
2023-05-05T11:48:04.806Z,1016.34
2023-05-05T11:49:04.334Z,1016.25
2023-05-05T11:50:04.377Z,1016.31
2023-05-05T11:51:04.270Z,1016.27
2023-05-05T11:52:04.223Z,1016.30
2023-05-05T11:53:04.281Z,1016.29
2023-05-05T11:54:04.269Z,1016.25
2023-05-05T11:55:04.363Z,1016.26
2023-05-05T11:56:04.187Z,1016.31
2023-05-05T11:57:04.357Z,1016.23
2023-05-05T11:58:04.364Z,1016.22
2023-05-05T11:59:04.261Z,1016.23
2023-05-05T12:00:04.668Z,1016.25
2023-05-05T12:01:04.164Z,1016.26
2023-05-05T12:02:04.092Z,1016.26
2023-05-05T12:03:04.227Z,1016.24
2023-05-05T12:04:04.442Z,1016.23
2023-05-05T12:05:04.105Z,1016.29
2023-05-05T12:06:04.480Z,1016.26
2023-05-05T12:07:04.035Z,1016.23
2023-05-05T12:08:04.122Z,1016.22
2023-05-05T12:09:04.079Z,1016.27
2023-05-05T12:10:03.975Z,1016.22
2023-05-05T12:11:04.030Z,1016.24
2023-05-05T12:12:03.919Z,1016.20
2023-05-05T12:13:04.160Z,1016.17
2023-05-05T12:14:03.902Z,1016.23
2023-05-05T12:15:04.835Z,1016.17
2023-05-05T12:16:04.030Z,1016.20
2023-05-05T12:17:03.875Z,1016.15
2023-05-05T12:18:03.991Z,1016.14
2023-05-05T12:19:04.125Z,1016.12
2023-05-05T12:20:03.795Z,1016.09
2023-05-05T12:21:03.945Z,1016.11
2023-05-05T12:22:03.914Z,1016.14
2023-05-05T12:23:03.944Z,1016.20
2023-05-05T12:24:04.588Z,1016.16
2023-05-05T12:25:03.789Z,1016.12
2023-05-05T12:26:03.735Z,1016.08
2023-05-05T12:27:03.819Z,1016.08
2023-05-05T12:28:03.817Z,1016.03
2023-05-05T12:29:04.758Z,1015.96
2023-05-05T12:30:03.660Z,1015.98
2023-05-05T12:31:03.888Z,1015.96
2023-05-05T12:32:03.756Z,1015.93
2023-05-05T12:33:03.806Z,1015.89
2023-05-05T12:34:03.800Z,1015.93
2023-05-05T12:35:03.936Z,1015.89
2023-05-05T12:36:03.689Z,1015.86
2023-05-05T12:37:03.997Z,1015.92
2023-05-05T12:38:03.819Z,1015.92
2023-05-05T12:39:03.592Z,1015.94
2023-05-05T12:40:03.992Z,1015.97
2023-05-05T12:41:03.561Z,1016.00
2023-05-05T12:42:03.513Z,1015.98
2023-05-05T12:43:03.538Z,1016.05
2023-05-05T12:44:03.781Z,1016.03
2023-05-05T12:45:03.941Z,1016.05
2023-05-05T12:46:03.819Z,1016.07
2023-05-05T12:47:03.549Z,1016.05
2023-05-05T12:48:03.652Z,1016.14
2023-05-05T12:49:03.790Z,1016.07
2023-05-05T12:50:03.482Z,1016.04
2023-05-05T12:51:03.561Z,1016.10
2023-05-05T12:52:03.422Z,1016.09
2023-05-05T12:53:03.369Z,1016.13
2023-05-05T12:54:03.342Z,1016.16
2023-05-05T12:55:03.389Z,1016.12
2023-05-05T12:56:03.304Z,1016.11
2023-05-05T12:57:03.745Z,1016.13
2023-05-05T12:58:03.430Z,1016.12
2023-05-05T12:59:03.565Z,1016.12
2023-05-05T13:00:03.350Z,1016.12
2023-05-05T13:01:03.315Z,1016.08
2023-05-05T13:02:03.279Z,1016.09
2023-05-05T13:03:03.387Z,1016.17
2023-05-05T13:04:03.599Z,1016.07
2023-05-05T13:05:03.224Z,1016.05
2023-05-05T13:06:03.193Z,1016.05
2023-05-05T13:07:03.191Z,1016.07
2023-05-05T13:08:03.180Z,1016.08
2023-05-05T13:09:03.131Z,1016.07
2023-05-05T13:10:03.275Z,1016.06
2023-05-05T13:11:03.157Z,1016.07
2023-05-05T13:12:03.156Z,1016.11
2023-05-05T13:13:03.245Z,1016.07
2023-05-05T13:14:03.684Z,1016.09
2023-05-05T13:15:03.076Z,1016.05
2023-05-05T13:16:03.056Z,1016.07
2023-05-05T13:17:03.075Z,1016.02
2023-05-05T13:18:03.168Z,1016.05
2023-05-05T13:19:03.044Z,1016.01
2023-05-05T13:20:03.082Z,1015.98
2023-05-05T13:21:03.026Z,1016.00
2023-05-05T13:22:02.941Z,1015.95
2023-05-05T13:23:03.265Z,1015.92
2023-05-05T13:24:20.807Z,1015.96
2023-05-05T13:25:03.915Z,1015.97
2023-05-05T13:26:02.957Z,1015.97
2023-05-05T13:27:03.680Z,1015.91
2023-05-05T13:28:02.989Z,1015.90
2023-05-05T13:29:02.996Z,1015.89
2023-05-05T13:30:02.912Z,1015.85
2023-05-05T13:31:02.907Z,1015.88
2023-05-05T13:32:02.848Z,1015.81
2023-05-05T13:33:02.841Z,1015.85
2023-05-05T13:34:03.668Z,1015.95
2023-05-05T13:35:02.808Z,1015.86
2023-05-05T13:36:02.739Z,1015.78
2023-05-05T13:37:02.786Z,1015.83
2023-05-05T13:38:02.766Z,1015.82
2023-05-05T13:39:03.764Z,1015.82
2023-05-05T13:40:03.653Z,1015.78
2023-05-05T13:41:02.779Z,1015.74
2023-05-05T13:42:02.769Z,1015.77
2023-05-05T13:43:02.830Z,1015.78
2023-05-05T13:44:02.719Z,1015.77
2023-05-05T13:45:02.740Z,1015.66
2023-05-05T13:46:16.153Z,1015.68
2023-05-05T13:47:03.900Z,1015.70
2023-05-05T13:48:02.684Z,1015.60
2023-05-05T13:49:02.692Z,1015.65
2023-05-05T13:50:02.643Z,1015.62
2023-05-05T13:51:02.627Z,1015.59
2023-05-05T13:52:02.522Z,1015.59
2023-05-05T13:53:02.548Z,1015.56
2023-05-05T13:54:02.532Z,1015.56
2023-05-05T13:55:03.486Z,1015.57
2023-05-05T13:56:02.948Z,1015.63
2023-05-05T13:57:02.472Z,1015.63
2023-05-05T13:58:02.551Z,1015.60
2023-05-05T13:59:02.650Z,1015.58
2023-05-05T14:00:02.696Z,1015.55
2023-05-05T14:01:02.476Z,1015.52
2023-05-05T14:02:02.506Z,1015.51
2023-05-05T14:03:02.765Z,1015.51
2023-05-05T14:04:05.205Z,1015.41
2023-05-05T14:05:03.000Z,1015.44
2023-05-05T14:06:02.713Z,1015.47
2023-05-05T14:07:02.676Z,1015.41
2023-05-05T14:08:02.595Z,1015.44
2023-05-05T14:09:02.324Z,1015.44
2023-05-05T14:10:02.470Z,1015.42
2023-05-05T14:11:02.387Z,1015.42
2023-05-05T14:12:02.768Z,1015.38
2023-05-05T14:13:02.379Z,1015.38
2023-05-05T14:14:02.611Z,1015.34
2023-05-05T14:15:02.268Z,1015.31
2023-05-05T14:16:02.390Z,1015.39
2023-05-05T14:17:02.394Z,1015.38
2023-05-05T14:18:02.212Z,1015.36
2023-05-05T14:19:02.242Z,1015.30
2023-05-05T14:20:02.174Z,1015.26
2023-05-05T14:21:02.238Z,1015.23
2023-05-05T14:22:02.115Z,1015.24
2023-05-05T14:23:02.183Z,1015.24
2023-05-05T14:24:02.636Z,1015.20
2023-05-05T14:25:02.393Z,1015.25
2023-05-05T14:26:02.497Z,1015.26
2023-05-05T14:27:02.033Z,1015.27
2023-05-05T14:28:02.612Z,1015.19
2023-05-05T14:29:02.071Z,1015.27
2023-05-05T14:30:02.751Z,1015.30
2023-05-05T14:31:02.014Z,1015.24
2023-05-05T14:32:02.831Z,1015.27
2023-05-05T14:33:02.239Z,1015.28
2023-05-05T14:34:02.091Z,1015.29
2023-05-05T14:35:01.992Z,1015.20
2023-05-05T14:36:01.979Z,1015.23
2023-05-05T14:37:02.259Z,1015.20
2023-05-05T14:38:02.944Z,1015.17
2023-05-05T14:39:01.929Z,1015.15
2023-05-05T14:40:04.318Z,1015.17
2023-05-05T14:41:01.967Z,1015.10
2023-05-05T14:42:02.001Z,1015.10
2023-05-05T14:43:02.032Z,1015.10
2023-05-05T14:44:01.847Z,1015.09
2023-05-05T14:45:01.789Z,1015.02
2023-05-05T14:46:01.823Z,1015.13
2023-05-05T14:47:01.965Z,1015.08
2023-05-05T14:48:01.854Z,1015.12
2023-05-05T14:49:01.740Z,1015.10
2023-05-05T14:50:01.705Z,1015.06
2023-05-05T14:51:01.900Z,1015.17
2023-05-05T14:52:01.719Z,1015.04
2023-05-05T14:53:01.916Z,1015.14
2023-05-05T14:54:01.654Z,1015.14
2023-05-05T14:55:01.711Z,1015.09
2023-05-05T14:56:01.641Z,1015.15
2023-05-05T14:57:01.872Z,1015.14
2023-05-05T14:58:01.889Z,1015.13
2023-05-05T14:59:01.684Z,1015.07
2023-05-05T15:00:01.709Z,1015.12
2023-05-05T15:01:01.827Z,1015.11
2023-05-05T15:02:01.920Z,1015.18
2023-05-05T15:03:01.888Z,1015.13
2023-05-05T15:04:01.640Z,1015.11
2023-05-05T15:05:01.559Z,1015.14
2023-05-05T15:06:01.570Z,1015.05
2023-05-05T15:07:01.540Z,1015.10
2023-05-05T15:08:01.685Z,1015.12
2023-05-05T15:09:01.529Z,1015.11
2023-05-05T15:10:01.541Z,1015.03
2023-05-05T15:11:01.821Z,1015.06
2023-05-05T15:12:01.446Z,1015.05
2023-05-05T15:13:01.679Z,1015.05
2023-05-05T15:14:01.606Z,1015.03
2023-05-05T15:15:01.426Z,1015.06
2023-05-05T15:16:01.659Z,1015.00
2023-05-05T15:17:01.394Z,1014.96
2023-05-05T15:18:01.409Z,1014.99
2023-05-05T15:19:01.792Z,1014.97
2023-05-05T15:20:01.393Z,1014.93
2023-05-05T15:21:01.303Z,1015.00
2023-05-05T15:22:01.426Z,1014.98
2023-05-05T15:23:01.359Z,1014.99
2023-05-05T15:24:01.300Z,1014.96
2023-05-05T15:25:01.365Z,1015.04
2023-05-05T15:26:01.245Z,1014.98
2023-05-05T15:27:01.272Z,1014.94
2023-05-05T15:28:01.425Z,1014.93
2023-05-05T15:29:01.233Z,1014.91
2023-05-05T15:30:01.219Z,1014.88
2023-05-05T15:31:01.250Z,1014.86
2023-05-05T15:32:01.568Z,1014.82
2023-05-05T15:33:01.304Z,1014.78
2023-05-05T15:34:01.330Z,1014.79
2023-05-05T15:35:01.326Z,1014.72
2023-05-05T15:36:01.148Z,1014.76
2023-05-05T15:37:01.228Z,1014.74
2023-05-05T15:38:01.113Z,1014.78
2023-05-05T15:39:01.191Z,1014.77
2023-05-05T15:40:01.033Z,1014.74
2023-05-05T15:41:01.861Z,1014.74
2023-05-05T15:42:01.160Z,1014.72
2023-05-05T15:43:00.978Z,1014.72
2023-05-05T15:44:01.276Z,1014.71
2023-05-05T15:45:00.991Z,1014.69
2023-05-05T15:46:01.036Z,1014.67
2023-05-05T15:47:01.113Z,1014.68
2023-05-05T15:48:01.004Z,1014.68
2023-05-05T15:49:00.944Z,1014.71
2023-05-05T15:50:00.987Z,1014.72
2023-05-05T15:51:01.188Z,1014.70
2023-05-05T15:52:01.018Z,1014.73
2023-05-05T15:53:01.037Z,1014.70
2023-05-05T15:54:01.568Z,1014.77
2023-05-05T15:55:01.025Z,1014.69
2023-05-05T15:56:01.716Z,1014.70
2023-05-05T15:57:00.798Z,1014.74
2023-05-05T15:58:00.879Z,1014.66
2023-05-05T15:59:00.781Z,1014.69
2023-05-05T16:00:00.858Z,1014.66
2023-05-05T16:01:01.208Z,1014.64
2023-05-05T16:02:00.750Z,1014.61
2023-05-05T16:03:01.224Z,1014.62
2023-05-05T16:04:01.566Z,1014.61
2023-05-05T16:05:00.747Z,1014.47
2023-05-05T16:06:00.702Z,1014.65
2023-05-05T16:07:00.721Z,1014.55
2023-05-05T16:08:00.719Z,1014.51
2023-05-05T16:09:00.704Z,1014.60
2023-05-05T16:10:00.958Z,1014.56
2023-05-05T16:11:00.870Z,1014.53
2023-05-05T16:12:00.808Z,1014.55
2023-05-05T16:13:00.827Z,1014.56
2023-05-05T16:14:00.644Z,1014.53
2023-05-05T16:15:00.649Z,1014.56
2023-05-05T16:16:01.182Z,1014.54
2023-05-05T16:17:01.585Z,1014.55
2023-05-05T16:18:00.618Z,1014.53
2023-05-05T16:19:00.788Z,1014.56
2023-05-05T16:20:00.537Z,1014.55
2023-05-05T16:21:00.520Z,1014.52
2023-05-05T16:22:00.494Z,1014.54
2023-05-05T16:23:00.451Z,1014.51
2023-05-05T16:24:00.887Z,1014.52
2023-05-05T16:25:00.559Z,1014.62
2023-05-05T16:26:00.797Z,1014.52
2023-05-05T16:27:00.395Z,1014.55
2023-05-05T16:28:00.409Z,1014.54
2023-05-05T16:29:00.526Z,1014.55
2023-05-05T16:30:00.377Z,1014.54
2023-05-05T16:31:00.450Z,1014.53
2023-05-05T16:32:00.323Z,1014.55
2023-05-05T16:33:00.392Z,1014.58
2023-05-05T16:34:00.434Z,1014.62
2023-05-05T16:35:00.268Z,1014.66
2023-05-05T16:36:00.302Z,1014.67
2023-05-05T16:37:00.691Z,1014.72
2023-05-05T16:38:00.600Z,1014.67
2023-05-05T16:39:00.217Z,1014.67
2023-05-05T16:40:00.337Z,1014.70
2023-05-05T16:41:00.468Z,1014.76
2023-05-05T16:42:00.221Z,1014.75
2023-05-05T16:43:00.192Z,1014.75
2023-05-05T16:44:00.363Z,1014.75
2023-05-05T16:45:00.268Z,1014.80
2023-05-05T16:46:00.235Z,1014.80
2023-05-05T16:47:00.202Z,1014.80
2023-05-05T16:48:00.168Z,1014.80
2023-05-05T16:49:00.172Z,1014.81
2023-05-05T16:50:01.089Z,1014.78
2023-05-05T16:51:00.181Z,1014.77
2023-05-05T16:52:00.078Z,1014.71
2023-05-05T16:53:00.127Z,1014.70
2023-05-05T16:54:00.802Z,1014.80
2023-05-05T16:55:00.805Z,1014.78
2023-05-05T16:56:00.002Z,1014.77
2023-05-05T16:57:00.032Z,1014.77
2023-05-05T16:57:59.972Z,1014.84
2023-05-05T16:59:00.756Z,1014.82
2023-05-05T16:59:59.992Z,1014.81
2023-05-05T17:00:59.970Z,1014.79
2023-05-05T17:02:00.443Z,1014.77
2023-05-05T17:03:00.008Z,1014.77
2023-05-05T17:03:59.862Z,1014.81
2023-05-05T17:04:59.882Z,1014.77
2023-05-05T17:06:00.757Z,1014.83
2023-05-05T17:07:00.670Z,1014.87
2023-05-05T17:07:59.974Z,1014.83
2023-05-05T17:09:00.728Z,1014.86
2023-05-05T17:10:00.013Z,1014.86
2023-05-05T17:11:00.771Z,1014.90
2023-05-05T17:11:59.819Z,1014.96
2023-05-05T17:13:00.614Z,1014.92
2023-05-05T17:13:59.780Z,1014.89
2023-05-05T17:15:00.054Z,1014.90
2023-05-05T17:15:59.851Z,1015.00
2023-05-05T17:16:59.745Z,1014.93
2023-05-05T17:18:00.786Z,1014.97
2023-05-05T17:18:59.671Z,1014.97
2023-05-05T17:19:59.911Z,1014.95
2023-05-05T17:20:59.721Z,1014.95
2023-05-05T17:21:59.726Z,1015.00
2023-05-05T17:22:59.660Z,1014.97
2023-05-05T17:23:59.644Z,1014.98
2023-05-05T17:24:59.644Z,1014.99
2023-05-05T17:25:59.613Z,1015.00
2023-05-05T17:27:00.615Z,1014.93
2023-05-05T17:27:59.557Z,1014.99
2023-05-05T17:28:59.833Z,1014.94
2023-05-05T17:29:59.581Z,1014.97
2023-05-05T17:30:59.558Z,1015.00
2023-05-05T17:32:00.402Z,1014.98
2023-05-05T17:32:59.614Z,1014.95
2023-05-05T17:34:00.346Z,1014.96
2023-05-05T17:34:59.584Z,1014.92
2023-05-05T17:35:59.443Z,1014.97
2023-05-05T17:36:59.591Z,1014.96
2023-05-05T17:37:59.440Z,1014.96
2023-05-05T17:38:59.378Z,1014.88
2023-05-05T17:39:59.387Z,1014.95
2023-05-05T17:40:59.388Z,1014.96
2023-05-05T17:41:59.363Z,1014.92
2023-05-05T17:42:59.342Z,1014.95
2023-05-05T17:43:59.563Z,1014.94
2023-05-05T17:44:59.612Z,1014.98
2023-05-05T17:45:59.447Z,1014.95
2023-05-05T17:46:59.293Z,1014.97
2023-05-05T17:47:59.707Z,1014.95
2023-05-05T17:48:59.372Z,1014.97
2023-05-05T17:49:59.265Z,1014.99
2023-05-05T17:50:59.716Z,1014.96
2023-05-05T17:51:59.208Z,1015.00
2023-05-05T17:52:59.766Z,1015.02
2023-05-05T17:53:59.699Z,1015.04
2023-05-05T17:54:59.179Z,1015.07
2023-05-05T17:55:59.701Z,1015.12
2023-05-05T17:56:59.966Z,1015.10
2023-05-05T17:57:59.205Z,1015.16
2023-05-05T17:58:59.143Z,1015.20
2023-05-05T17:59:59.175Z,1015.22
2023-05-05T18:00:59.297Z,1015.20
2023-05-05T18:01:59.223Z,1015.26
2023-05-05T18:02:59.305Z,1015.23
2023-05-05T18:03:59.345Z,1015.24
2023-05-05T18:04:59.135Z,1015.34
2023-05-05T18:05:59.259Z,1015.32
2023-05-05T18:06:59.043Z,1015.39
2023-05-05T18:07:59.094Z,1015.35
2023-05-05T18:08:58.976Z,1015.38
2023-05-05T18:09:58.998Z,1015.49
2023-05-05T18:10:58.932Z,1015.40
2023-05-05T18:11:59.032Z,1015.45
2023-05-05T18:12:59.013Z,1015.42
2023-05-05T18:13:58.944Z,1015.48
2023-05-05T18:14:59.750Z,1015.43
2023-05-05T18:15:58.922Z,1015.47
2023-05-05T18:16:59.068Z,1015.44
2023-05-05T18:17:58.858Z,1015.45
2023-05-05T18:18:58.881Z,1015.42
2023-05-05T18:19:58.837Z,1015.44
2023-05-05T18:20:58.839Z,1015.48
2023-05-05T18:21:58.808Z,1015.47
2023-05-05T18:22:58.876Z,1015.49
2023-05-05T18:24:07.554Z,1015.50
2023-05-05T18:24:59.750Z,1015.53
2023-05-05T18:25:58.732Z,1015.55
2023-05-05T18:26:58.753Z,1015.59
2023-05-05T18:27:58.837Z,1015.61
2023-05-05T18:28:58.725Z,1015.64
2023-05-05T18:29:58.702Z,1015.72
2023-05-05T18:30:58.673Z,1015.71
2023-05-05T18:31:58.732Z,1015.74
2023-05-05T18:32:58.753Z,1015.80
2023-05-05T18:33:58.862Z,1015.85
2023-05-05T18:34:58.630Z,1015.85
2023-05-05T18:35:58.854Z,1015.89
2023-05-05T18:36:58.572Z,1015.95
2023-05-05T18:37:58.669Z,1015.95
2023-05-05T18:38:58.652Z,1015.98
2023-05-05T18:39:58.523Z,1015.99
2023-05-05T18:40:59.298Z,1016.05
2023-05-05T18:41:58.480Z,1016.07
2023-05-05T18:42:58.504Z,1016.08
2023-05-05T18:43:58.487Z,1016.12
2023-05-05T18:44:58.478Z,1016.15
2023-05-05T18:45:59.473Z,1016.22
2023-05-05T18:46:58.523Z,1016.24
2023-05-05T18:47:58.546Z,1016.28
2023-05-05T18:48:58.410Z,1016.23
2023-05-05T18:49:58.374Z,1016.25
2023-05-05T18:50:59.378Z,1016.23
2023-05-05T18:51:58.353Z,1016.28